sensor_id;sensor_type;location;lat;lon;timestamp;pressure;altitude;pressure_sealevel;temperature;humidity
18819;BME280;9537;45.594;9.294;2023-05-11T00:00:50;99235.31;;;14.77;93.30
18819;BME280;9537;45.594;9.294;2023-05-11T00:01:51;99228.34;;;14.76;93.35
18819;BME280;9537;45.594;9.294;2023-05-11T00:02:54;99225.50;;;14.77;93.59
18819;BME280;9537;45.594;9.294;2023-05-11T00:03:55;99235.31;;;14.77;93.75
18819;BME280;9537;45.594;9.294;2023-05-11T00:04:58;99232.66;;;14.77;93.53
18819;BME280;9537;45.594;9.294;2023-05-11T00:05:59;99232.44;;;14.78;93.57
18819;BME280;9537;45.594;9.294;2023-05-11T00:07:01;99234.09;;;14.73;94.34
18819;BME280;9537;45.594;9.294;2023-05-11T00:08:04;99236.13;;;14.77;94.27
18819;BME280;9537;45.594;9.294;2023-05-11T00:09:06;99232.84;;;14.75;93.76
18819;BME280;9537;45.594;9.294;2023-05-11T00:10:09;99219.38;;;14.77;94.07
18819;BME280;9537;45.594;9.294;2023-05-11T00:11:11;99230.19;;;14.75;93.84
18819;BME280;9537;45.594;9.294;2023-05-11T00:12:12;99220.59;;;14.74;94.01
18819;BME280;9537;45.594;9.294;2023-05-11T00:13:16;99224.06;;;14.75;94.18
18819;BME280;9537;45.594;9.294;2023-05-11T00:14:17;99219.56;;;14.75;94.46
18819;BME280;9537;45.594;9.294;2023-05-11T00:15:20;99227.53;;;14.75;94.48
18819;BME280;9537;45.594;9.294;2023-05-11T00:16:21;99219.38;;;14.77;94.06
18819;BME280;9537;45.594;9.294;2023-05-11T00:17:23;99207.91;;;14.76;94.08
18819;BME280;9537;45.594;9.294;2023-05-11T00:18:24;99211.78;;;14.80;94.18
18819;BME280;9537;45.594;9.294;2023-05-11T00:19:27;99214.06;;;14.77;94.48
18819;BME280;9537;45.594;9.294;2023-05-11T00:20:28;99212.22;;;14.77;94.24
18819;BME280;9537;45.594;9.294;2023-05-11T00:21:30;99208.75;;;14.77;94.53
18819;BME280;9537;45.594;9.294;2023-05-11T00:22:32;99213.81;;;14.78;94.55
18819;BME280;9537;45.594;9.294;2023-05-11T00:23:36;99212.81;;;14.79;94.30
18819;BME280;9537;45.594;9.294;2023-05-11T00:24:37;99206.88;;;14.77;94.67
18819;BME280;9537;45.594;9.294;2023-05-11T00:25:39;99205.03;;;14.78;94.37
18819;BME280;9537;45.594;9.294;2023-05-11T00:26:41;99199.72;;;14.78;94.47
18819;BME280;9537;45.594;9.294;2023-05-11T00:27:43;99201.56;;;14.77;94.30
18819;BME280;9537;45.594;9.294;2023-05-11T00:28:45;99199.91;;;14.76;94.69
18819;BME280;9537;45.594;9.294;2023-05-11T00:29:48;99196.25;;;14.77;94.21
18819;BME280;9537;45.594;9.294;2023-05-11T00:30:53;99202.56;;;14.76;93.74
18819;BME280;9537;45.594;9.294;2023-05-11T00:31:56;99197.69;;;14.73;94.14
18819;BME280;9537;45.594;9.294;2023-05-11T00:32:57;99191.56;;;14.73;93.80
18819;BME280;9537;45.594;9.294;2023-05-11T00:33:59;99189.94;;;14.72;94.06
18819;BME280;9537;45.594;9.294;2023-05-11T00:35:01;99189.13;;;14.71;93.96
18819;BME280;9537;45.594;9.294;2023-05-11T00:36:03;99190.13;;;14.70;93.86
18819;BME280;9537;45.594;9.294;2023-05-11T00:37:04;99185.84;;;14.69;94.16
18819;BME280;9537;45.594;9.294;2023-05-11T00:38:06;99192.22;;;14.68;94.03
18819;BME280;9537;45.594;9.294;2023-05-11T00:39:09;99192.41;;;14.67;94.30
18819;BME280;9537;45.594;9.294;2023-05-11T00:40:12;99185.47;;;14.66;94.62
18819;BME280;9537;45.594;9.294;2023-05-11T00:41:13;99187.31;;;14.65;94.64
18819;BME280;9537;45.594;9.294;2023-05-11T00:42:15;99180.97;;;14.66;94.68
18819;BME280;9537;45.594;9.294;2023-05-11T00:43:17;99189.75;;;14.67;94.55
18819;BME280;9537;45.594;9.294;2023-05-11T00:44:19;99180.53;;;14.69;94.53
18819;BME280;9537;45.594;9.294;2023-05-11T00:45:21;99177.88;;;14.69;94.45
18819;BME280;9537;45.594;9.294;2023-05-11T00:46:23;99175.22;;;14.69;94.38
18819;BME280;9537;45.594;9.294;2023-05-11T00:47:26;99177.28;;;14.67;94.36
18819;BME280;9537;45.594;9.294;2023-05-11T00:48:28;99174.03;;;14.65;94.64
18819;BME280;9537;45.594;9.294;2023-05-11T00:49:29;99173.00;;;14.66;94.42
18819;BME280;9537;45.594;9.294;2023-05-11T00:50:32;99172.38;;;14.64;94.59
18819;BME280;9537;45.594;9.294;2023-05-11T00:51:33;99167.06;;;14.64;94.90
18819;BME280;9537;45.594;9.294;2023-05-11T00:52:37;99175.84;;;14.64;94.82
18819;BME280;9537;45.594;9.294;2023-05-11T00:53:38;99166.25;;;14.63;95.08
18819;BME280;9537;45.594;9.294;2023-05-11T00:54:42;99168.72;;;14.65;95.06
18819;BME280;9537;45.594;9.294;2023-05-11T00:55:45;99167.06;;;14.64;95.22
18819;BME280;9537;45.594;9.294;2023-05-11T00:56:47;99165.81;;;14.67;95.10
18819;BME280;9537;45.594;9.294;2023-05-11T00:57:48;99166.88;;;14.66;95.07
18819;BME280;9537;45.594;9.294;2023-05-11T00:58:51;99165.03;;;14.66;95.31
18819;BME280;9537;45.594;9.294;2023-05-11T00:59:52;99171.16;;;14.67;95.42
18819;BME280;9537;45.594;9.294;2023-05-11T01:00:54;99157.66;;;14.68;95.25
18819;BME280;9537;45.594;9.294;2023-05-11T01:01:56;99161.13;;;14.69;95.03
18819;BME280;9537;45.594;9.294;2023-05-11T01:02:59;99161.13;;;14.69;95.42
18819;BME280;9537;45.594;9.294;2023-05-11T01:04:01;99164.59;;;14.69;95.36
18819;BME280;9537;45.594;9.294;2023-05-11T01:05:04;99155.00;;;14.68;95.25
18819;BME280;9537;45.594;9.294;2023-05-11T01:06:09;99155.19;;;14.67;95.44
18819;BME280;9537;45.594;9.294;2023-05-11T01:07:15;99158.91;;;14.66;95.44
18819;BME280;9537;45.594;9.294;2023-05-11T01:08:23;99143.75;;;14.66;95.35
18819;BME280;9537;45.594;9.294;2023-05-11T01:09:36;99155.00;;;14.68;95.13
18819;BME280;9537;45.594;9.294;2023-05-11T01:10:47;99151.31;;;14.69;95.46
18819;BME280;9537;45.594;9.294;2023-05-11T01:11:52;99155.81;;;14.69;95.58
18819;BME280;9537;45.594;9.294;2023-05-11T01:13:01;99153.72;;;14.71;95.46
18819;BME280;9537;45.594;9.294;2023-05-11T01:14:12;99146.59;;;14.71;95.46
18819;BME280;9537;45.594;9.294;2023-05-11T01:15:20;99149.25;;;14.71;95.51
18819;BME280;9537;45.594;9.294;2023-05-11T01:16:27;99150.06;;;14.72;95.67
18819;BME280;9537;45.594;9.294;2023-05-11T01:17:37;99141.28;;;14.71;95.88
18819;BME280;9537;45.594;9.294;2023-05-11T01:18:47;99146.59;;;14.71;95.94
18819;BME280;9537;45.594;9.294;2023-05-11T01:19:56;99146.59;;;14.71;96.12
18819;BME280;9537;45.594;9.294;2023-05-11T01:21:00;99155.38;;;14.72;95.73
18819;BME280;9537;45.594;9.294;2023-05-11T01:22:07;99146.19;;;14.74;95.50
18819;BME280;9537;45.594;9.294;2023-05-11T01:23:44;99152.31;;;14.75;95.73
18819;BME280;9537;45.594;9.294;2023-05-11T01:25:04;99151.06;;;14.77;95.43
18819;BME280;9537;45.594;9.294;2023-05-11T01:26:32;99152.06;;;14.76;95.45
18819;BME280;9537;45.594;9.294;2023-05-11T01:27:47;99159.25;;;14.76;95.48
18819;BME280;9537;45.594;9.294;2023-05-11T01:29:19;99153.09;;;14.75;96.02
18819;BME280;9537;45.594;9.294;2023-05-11T01:30:32;99159.25;;;14.76;95.73
18819;BME280;9537;45.594;9.294;2023-05-11T01:31:38;99161.91;;;14.76;95.87
18819;BME280;9537;45.594;9.294;2023-05-11T01:32:41;99166.63;;;14.74;96.32
18819;BME280;9537;45.594;9.294;2023-05-11T01:33:50;99156.00;;;14.74;96.28
18819;BME280;9537;45.594;9.294;2023-05-11T01:34:58;99154.72;;;14.76;96.03
18819;BME280;9537;45.594;9.294;2023-05-11T01:36:04;99161.91;;;14.76;95.80
18819;BME280;9537;45.594;9.294;2023-05-11T01:37:09;99155.56;;;14.77;95.76
18819;BME280;9537;45.594;9.294;2023-05-11T01:38:14;99157.19;;;14.78;95.73
18819;BME280;9537;45.594;9.294;2023-05-11T01:39:31;99160.03;;;14.76;95.94
18819;BME280;9537;45.594;9.294;2023-05-11T01:40:35;99151.06;;;14.77;95.89
18819;BME280;9537;45.594;9.294;2023-05-11T01:41:38;99154.72;;;14.76;96.20
18819;BME280;9537;45.594;9.294;2023-05-11T01:42:44;99164.56;;;14.76;96.04
18819;BME280;9537;45.594;9.294;2023-05-11T01:43:53;99155.16;;;14.80;95.94
18819;BME280;9537;45.594;9.294;2023-05-11T01:44:56;99160.47;;;14.80;95.99
18819;BME280;9537;45.594;9.294;2023-05-11T01:45:59;99161.28;;;14.80;96.26
18819;BME280;9537;45.594;9.294;2023-05-11T01:47:04;99157.81;;;14.80;96.13
18819;BME280;9537;45.594;9.294;2023-05-11T01:48:23;99152.50;;;14.80;96.17
18819;BME280;9537;45.594;9.294;2023-05-11T01:49:28;99154.34;;;14.79;95.88
18819;BME280;9537;45.594;9.294;2023-05-11T01:50:31;99148.19;;;14.79;96.03
18819;BME280;9537;45.594;9.294;2023-05-11T01:51:36;99152.69;;;14.78;95.85
18819;BME280;9537;45.594;9.294;2023-05-11T01:52:38;99149.00;;;14.79;95.98
18819;BME280;9537;45.594;9.294;2023-05-11T01:53:42;99153.28;;;14.80;95.58
18819;BME280;9537;45.594;9.294;2023-05-11T01:54:45;99146.34;;;14.79;95.77
18819;BME280;9537;45.594;9.294;2023-05-11T01:55:50;99147.75;;;14.82;95.69
18819;BME280;9537;45.594;9.294;2023-05-11T01:56:52;99148.59;;;14.82;95.22
18819;BME280;9537;45.594;9.294;2023-05-11T01:57:55;99152.06;;;14.83;95.39
18819;BME280;9537;45.594;9.294;2023-05-11T01:58:58;99143.28;;;14.82;95.38
18819;BME280;9537;45.594;9.294;2023-05-11T02:00:02;99149.41;;;14.83;95.83
18819;BME280;9537;45.594;9.294;2023-05-11T02:01:07;99151.25;;;14.82;95.93
18819;BME280;9537;45.594;9.294;2023-05-11T02:02:11;99150.22;;;14.83;95.57
18819;BME280;9537;45.594;9.294;2023-05-11T02:03:14;99150.22;;;14.83;95.19
18819;BME280;9537;45.594;9.294;2023-05-11T02:04:18;99150.22;;;14.83;95.33
18819;BME280;9537;45.594;9.294;2023-05-11T02:05:21;99152.88;;;14.83;95.17
18819;BME280;9537;45.594;9.294;2023-05-11T02:06:26;99150.22;;;14.83;95.37
18819;BME280;9537;45.594;9.294;2023-05-11T02:07:28;99146.75;;;14.83;95.23
18819;BME280;9537;45.594;9.294;2023-05-11T02:08:32;99147.56;;;14.83;95.40
18819;BME280;9537;45.594;9.294;2023-05-11T02:09:34;99151.25;;;14.82;95.64
18819;BME280;9537;45.594;9.294;2023-05-11T02:10:38;99142.22;;;14.83;95.74
18819;BME280;9537;45.594;9.294;2023-05-11T02:11:41;99148.59;;;14.82;96.03
18819;BME280;9537;45.594;9.294;2023-05-11T02:12:44;99140.00;;;14.80;96.10
18819;BME280;9537;45.594;9.294;2023-05-11T02:13:48;99141.63;;;14.81;95.90
18819;BME280;9537;45.594;9.294;2023-05-11T02:14:52;99140.38;;;14.84;95.46
18819;BME280;9537;45.594;9.294;2023-05-11T02:15:56;99136.91;;;14.83;95.31
18819;BME280;9537;45.594;9.294;2023-05-11T02:17:01;99144.88;;;14.83;95.61
18819;BME280;9537;45.594;9.294;2023-05-11T02:18:04;99145.50;;;14.85;95.21
18819;BME280;9537;45.594;9.294;2023-05-11T02:19:07;99138.53;;;14.84;95.21
18819;BME280;9537;45.594;9.294;2023-05-11T02:20:10;99132.41;;;14.84;94.96
18819;BME280;9537;45.594;9.294;2023-05-11T02:21:14;99126.47;;;14.82;95.27
18819;BME280;9537;45.594;9.294;2023-05-11T02:22:16;99135.50;;;14.81;95.73
18819;BME280;9537;45.594;9.294;2023-05-11T02:23:20;99133.06;;;14.79;95.86
18819;BME280;9537;45.594;9.294;2023-05-11T02:24:23;99126.91;;;14.79;95.80
18819;BME280;9537;45.594;9.294;2023-05-11T02:25:28;99125.09;;;14.79;96.06
18819;BME280;9537;45.594;9.294;2023-05-11T02:26:30;99125.47;;;14.83;96.09
18819;BME280;9537;45.594;9.294;2023-05-11T02:27:32;99135.28;;;14.82;95.39
18819;BME280;9537;45.594;9.294;2023-05-11T02:28:35;99131.78;;;14.82;95.64
18819;BME280;9537;45.594;9.294;2023-05-11T02:29:38;99132.41;;;14.84;95.23
18819;BME280;9537;45.594;9.294;2023-05-11T02:30:44;99131.38;;;14.85;95.07
18819;BME280;9537;45.594;9.294;2023-05-11T02:31:48;99135.69;;;14.86;95.23
18819;BME280;9537;45.594;9.294;2023-05-11T02:32:54;99134.88;;;14.85;94.84
18819;BME280;9537;45.594;9.294;2023-05-11T02:34:03;99144.88;;;14.83;94.71
18819;BME280;9537;45.594;9.294;2023-05-11T02:35:10;99144.28;;;14.81;95.07
18819;BME280;9537;45.594;9.294;2023-05-11T02:36:18;99150.41;;;14.82;94.69
18819;BME280;9537;45.594;9.294;2023-05-11T02:37:23;99148.59;;;14.82;94.90
18819;BME280;9537;45.594;9.294;2023-05-11T02:38:29;99145.09;;;14.82;94.88
18819;BME280;9537;45.594;9.294;2023-05-11T02:39:34;99146.56;;;14.78;95.27
18819;BME280;9537;45.594;9.294;2023-05-11T02:40:42;99142.84;;;14.79;95.18
18819;BME280;9537;45.594;9.294;2023-05-11T02:41:48;99142.66;;;14.80;95.09
18819;BME280;9537;45.594;9.294;2023-05-11T02:42:56;99143.28;;;14.82;94.87
18819;BME280;9537;45.594;9.294;2023-05-11T02:44:02;99140.38;;;14.84;95.09
18819;BME280;9537;45.594;9.294;2023-05-11T02:45:07;99137.53;;;14.85;94.51
18819;BME280;9537;45.594;9.294;2023-05-11T02:46:12;99135.88;;;14.84;94.74
18819;BME280;9537;45.594;9.294;2023-05-11T02:47:17;99143.03;;;14.84;94.78
18819;BME280;9537;45.594;9.294;2023-05-11T02:48:24;99136.31;;;14.81;95.06
18819;BME280;9537;45.594;9.294;2023-05-11T02:49:28;99141.63;;;14.81;95.24
18819;BME280;9537;45.594;9.294;2023-05-11T02:50:35;99141.63;;;14.81;95.18
18819;BME280;9537;45.594;9.294;2023-05-11T02:51:42;99131.00;;;14.81;95.12
18819;BME280;9537;45.594;9.294;2023-05-11T02:52:46;99125.09;;;14.79;94.88
18819;BME280;9537;45.594;9.294;2023-05-11T02:53:50;99127.53;;;14.81;95.27
18819;BME280;9537;45.594;9.294;2023-05-11T02:54:53;99130.19;;;14.81;95.11
18819;BME280;9537;45.594;9.294;2023-05-11T02:55:56;99129.38;;;14.80;95.19
18819;BME280;9537;45.594;9.294;2023-05-11T02:56:58;99128.56;;;14.80;95.15
18819;BME280;9537;45.594;9.294;2023-05-11T02:58:00;99130.78;;;14.83;94.92
18819;BME280;9537;45.594;9.294;2023-05-11T02:59:01;99134.25;;;14.83;94.67
18819;BME280;9537;45.594;9.294;2023-05-11T03:00:04;99132.63;;;14.82;94.79
18819;BME280;9537;45.594;9.294;2023-05-11T03:01:06;99123.00;;;14.81;94.93
18819;BME280;9537;45.594;9.294;2023-05-11T03:02:09;99125.91;;;14.80;94.90
18819;BME280;9537;45.594;9.294;2023-05-11T03:03:10;99131.00;;;14.81;94.99
18819;BME280;9537;45.594;9.294;2023-05-11T03:04:14;99129.97;;;14.82;94.62
18819;BME280;9537;45.594;9.294;2023-05-11T03:05:15;99128.13;;;14.83;94.35
18819;BME280;9537;45.594;9.294;2023-05-11T03:06:17;99128.34;;;14.81;94.33
18819;BME280;9537;45.594;9.294;2023-05-11T03:07:18;99126.91;;;14.85;93.93
18819;BME280;9537;45.594;9.294;2023-05-11T03:08:21;99134.25;;;14.83;93.98
18819;BME280;9537;45.594;9.294;2023-05-11T03:09:22;99137.34;;;14.80;94.14
18819;BME280;9537;45.594;9.294;2023-05-11T03:10:25;99134.06;;;14.78;94.30
18819;BME280;9537;45.594;9.294;2023-05-11T03:11:27;99125.28;;;14.78;94.34
18819;BME280;9537;45.594;9.294;2023-05-11T03:12:30;99124.25;;;14.79;94.39
18819;BME280;9537;45.594;9.294;2023-05-11T03:13:33;99127.75;;;14.79;94.34
18819;BME280;9537;45.594;9.294;2023-05-11T03:14:37;99126.09;;;14.78;94.15
18819;BME280;9537;45.594;9.294;2023-05-11T03:15:39;99122.00;;;14.82;94.05
18819;BME280;9537;45.594;9.294;2023-05-11T03:16:43;99125.66;;;14.81;93.87
18819;BME280;9537;45.594;9.294;2023-05-11T03:17:45;99131.22;;;14.80;94.25
18819;BME280;9537;45.594;9.294;2023-05-11T03:18:48;99135.72;;;14.79;94.08
18819;BME280;9537;45.594;9.294;2023-05-11T03:19:51;99129.38;;;14.80;94.26
18819;BME280;9537;45.594;9.294;2023-05-11T03:20:54;99127.75;;;14.79;94.17
18819;BME280;9537;45.594;9.294;2023-05-11T03:21:56;99125.28;;;14.78;94.00
18819;BME280;9537;45.594;9.294;2023-05-11T03:22:59;99140.19;;;14.79;94.22
18819;BME280;9537;45.594;9.294;2023-05-11T03:24:01;99135.13;;;14.77;94.06
18819;BME280;9537;45.594;9.294;2023-05-11T03:25:05;99127.94;;;14.78;94.03
18819;BME280;9537;45.594;9.294;2023-05-11T03:26:07;99127.94;;;14.78;94.17
18819;BME280;9537;45.594;9.294;2023-05-11T03:27:11;99130.41;;;14.79;94.34
18819;BME280;9537;45.594;9.294;2023-05-11T03:28:13;99126.34;;;14.77;94.19
18819;BME280;9537;45.594;9.294;2023-05-11T03:29:16;99119.16;;;14.77;94.48
18819;BME280;9537;45.594;9.294;2023-05-11T03:30:18;99121.81;;;14.77;94.28
18819;BME280;9537;45.594;9.294;2023-05-11T03:31:21;99120.59;;;14.80;94.57
18819;BME280;9537;45.594;9.294;2023-05-11T03:32:22;99113.63;;;14.79;94.29
18819;BME280;9537;45.594;9.294;2023-05-11T03:33:24;99116.28;;;14.79;94.30
18819;BME280;9537;45.594;9.294;2023-05-11T03:34:25;99118.72;;;14.80;94.18
18819;BME280;9537;45.594;9.294;2023-05-11T03:35:32;99110.97;;;14.79;94.19
18819;BME280;9537;45.594;9.294;2023-05-11T03:36:34;99118.97;;;14.72;94.21
18819;BME280;9537;45.594;9.294;2023-05-11T03:37:37;99115.28;;;14.73;94.65
18819;BME280;9537;45.594;9.294;2023-05-11T03:38:39;99114.03;;;14.76;94.65
18819;BME280;9537;45.594;9.294;2023-05-11T03:39:42;99119.59;;;14.74;94.47
18819;BME280;9537;45.594;9.294;2023-05-11T03:40:46;99111.38;;;14.76;94.08
18819;BME280;9537;45.594;9.294;2023-05-11T03:41:49;99115.91;;;14.75;93.90
18819;BME280;9537;45.594;9.294;2023-05-11T03:42:53;99107.31;;;14.73;94.08
18819;BME280;9537;45.594;9.294;2023-05-11T03:43:58;99110.56;;;14.75;94.11
18819;BME280;9537;45.594;9.294;2023-05-11T03:45:00;99112.44;;;14.75;94.22
18819;BME280;9537;45.594;9.294;2023-05-11T03:46:04;99108.53;;;14.77;93.78
18819;BME280;9537;45.594;9.294;2023-05-11T03:47:06;99104.84;;;14.78;93.64
18819;BME280;9537;45.594;9.294;2023-05-11T03:48:10;99113.63;;;14.79;93.52
18819;BME280;9537;45.594;9.294;2023-05-11T03:49:11;99113.63;;;14.79;93.13
18819;BME280;9537;45.594;9.294;2023-05-11T03:50:14;99112.00;;;14.78;93.22
18819;BME280;9537;45.594;9.294;2023-05-11T03:51:16;99120.59;;;14.80;93.13
18819;BME280;9537;45.594;9.294;2023-05-11T03:52:19;99111.81;;;14.79;93.16
18819;BME280;9537;45.594;9.294;2023-05-11T03:53:21;99117.94;;;14.80;92.56
18819;BME280;9537;45.594;9.294;2023-05-11T03:54:24;99117.13;;;14.79;93.21
18819;BME280;9537;45.594;9.294;2023-05-11T03:55:25;99112.59;;;14.80;92.95
18819;BME280;9537;45.594;9.294;2023-05-11T03:56:28;99119.97;;;14.78;93.03
18819;BME280;9537;45.594;9.294;2023-05-11T03:57:29;99125.28;;;14.78;93.54
18819;BME280;9537;45.594;9.294;2023-05-11T03:58:31;99118.13;;;14.78;93.36
18819;BME280;9537;45.594;9.294;2023-05-11T03:59:32;99124.25;;;14.79;93.29
18819;BME280;9537;45.594;9.294;2023-05-11T04:00:37;99130.59;;;14.78;93.15
18819;BME280;9537;45.594;9.294;2023-05-11T04:01:38;99121.81;;;14.77;93.10
18819;BME280;9537;45.594;9.294;2023-05-11T04:02:40;99128.75;;;14.78;93.38
18819;BME280;9537;45.594;9.294;2023-05-11T04:03:52;99130.81;;;14.76;93.50
18819;BME280;9537;45.594;9.294;2023-05-11T04:04:54;99122.19;;;14.81;93.03
18819;BME280;9537;45.594;9.294;2023-05-11T04:05:55;99120.16;;;14.83;92.40
18819;BME280;9537;45.594;9.294;2023-05-11T04:06:59;99131.78;;;14.82;92.28
18819;BME280;9537;45.594;9.294;2023-05-11T04:08:00;99124.06;;;14.80;92.49
18819;BME280;9537;45.594;9.294;2023-05-11T04:09:03;99122.44;;;14.79;92.79
18819;BME280;9537;45.594;9.294;2023-05-11T04:10:06;99119.78;;;14.79;92.75
18819;BME280;9537;45.594;9.294;2023-05-11T04:11:08;99118.13;;;14.78;92.72
18819;BME280;9537;45.594;9.294;2023-05-11T04:12:09;99117.13;;;14.79;92.80
18819;BME280;9537;45.594;9.294;2023-05-11T04:13:11;99118.94;;;14.79;93.12
18819;BME280;9537;45.594;9.294;2023-05-11T04:14:12;99114.22;;;14.81;92.91
18819;BME280;9537;45.594;9.294;2023-05-11T04:15:14;99113.19;;;14.82;93.10
18819;BME280;9537;45.594;9.294;2023-05-11T04:16:16;99110.97;;;14.79;93.05
18819;BME280;9537;45.594;9.294;2023-05-11T04:17:18;99108.09;;;14.80;92.69
18819;BME280;9537;45.594;9.294;2023-05-11T04:18:19;99112.00;;;14.78;93.32
18819;BME280;9537;45.594;9.294;2023-05-11T04:19:21;99116.28;;;14.79;92.68
18819;BME280;9537;45.594;9.294;2023-05-11T04:20:22;99112.59;;;14.80;92.54
18819;BME280;9537;45.594;9.294;2023-05-11T04:21:24;99109.53;;;14.76;92.66
18819;BME280;9537;45.594;9.294;2023-05-11T04:22:26;99114.66;;;14.78;92.53
18819;BME280;9537;45.594;9.294;2023-05-11T04:23:28;99106.88;;;14.76;92.22
18819;BME280;9537;45.594;9.294;2023-05-11T04:24:29;99109.94;;;14.80;92.49
18819;BME280;9537;45.594;9.294;2023-05-11T04:25:31;99117.69;;;14.81;91.97
18819;BME280;9537;45.594;9.294;2023-05-11T04:26:32;99117.13;;;14.79;91.83
18819;BME280;9537;45.594;9.294;2023-05-11T04:27:34;99110.97;;;14.79;91.75
18819;BME280;9537;45.594;9.294;2023-05-11T04:28:35;99118.50;;;14.82;91.42
18819;BME280;9537;45.594;9.294;2023-05-11T04:29:37;99108.72;;;14.82;91.13
18819;BME280;9537;45.594;9.294;2023-05-11T04:30:39;99112.19;;;14.83;91.10
18819;BME280;9537;45.594;9.294;2023-05-11T04:31:40;99113.00;;;14.83;91.14
18819;BME280;9537;45.594;9.294;2023-05-11T04:32:43;99116.06;;;14.80;90.96
18819;BME280;9537;45.594;9.294;2023-05-11T04:33:45;99110.53;;;14.82;90.89
18819;BME280;9537;45.594;9.294;2023-05-11T04:34:47;99115.41;;;14.85;90.58
18819;BME280;9537;45.594;9.294;2023-05-11T04:35:49;99107.44;;;14.85;90.40
18819;BME280;9537;45.594;9.294;2023-05-11T04:36:51;99111.94;;;14.84;90.21
18819;BME280;9537;45.594;9.294;2023-05-11T04:37:54;99111.53;;;14.87;90.33
18819;BME280;9537;45.594;9.294;2023-05-11T04:38:55;99114.41;;;14.86;89.63
18819;BME280;9537;45.594;9.294;2023-05-11T04:39:59;99109.28;;;14.84;89.43
18819;BME280;9537;45.594;9.294;2023-05-11T04:41:02;99117.50;;;14.83;89.38
18819;BME280;9537;45.594;9.294;2023-05-11T04:42:35;99112.38;;;14.81;89.29
18819;BME280;9537;45.594;9.294;2023-05-11T04:43:37;99109.53;;;14.76;89.67
18819;BME280;9537;45.594;9.294;2023-05-11T04:44:38;99114.84;;;14.76;89.63
18819;BME280;9537;45.594;9.294;2023-05-11T04:45:41;99110.16;;;14.78;89.12
18819;BME280;9537;45.594;9.294;2023-05-11T04:46:47;99112.81;;;14.78;88.46
18819;BME280;9537;45.594;9.294;2023-05-11T04:47:49;99110.16;;;14.78;88.13
18819;BME280;9537;45.594;9.294;2023-05-11T04:48:50;99116.69;;;14.76;88.37
18819;BME280;9537;45.594;9.294;2023-05-11T04:49:52;99114.28;;;14.74;88.58
18819;BME280;9537;45.594;9.294;2023-05-11T04:50:53;99124.69;;;14.76;88.53
18819;BME280;9537;45.594;9.294;2023-05-11T04:51:55;99120.41;;;14.75;88.38
18819;BME280;9537;45.594;9.294;2023-05-11T04:52:58;99117.13;;;14.73;88.69
18819;BME280;9537;45.594;9.294;2023-05-11T04:54:00;99114.28;;;14.74;88.58
18819;BME280;9537;45.594;9.294;2023-05-11T04:55:01;99110.81;;;14.74;87.54
18819;BME280;9537;45.594;9.294;2023-05-11T04:56:03;99113.66;;;14.72;87.95
18819;BME280;9537;45.594;9.294;2023-05-11T04:57:05;99113.66;;;14.72;87.85
18819;BME280;9537;45.594;9.294;2023-05-11T04:58:07;99113.47;;;14.74;88.37
18819;BME280;9537;45.594;9.294;2023-05-11T04:59:08;99111.81;;;14.73;88.68
18819;BME280;9537;45.594;9.294;2023-05-11T05:00:10;99115.28;;;14.73;88.86
18819;BME280;9537;45.594;9.294;2023-05-11T05:01:11;99111.81;;;14.73;89.23
18819;BME280;9537;45.594;9.294;2023-05-11T05:02:13;99115.09;;;14.75;89.09
18819;BME280;9537;45.594;9.294;2023-05-11T05:03:14;99107.91;;;14.75;89.06
18819;BME280;9537;45.594;9.294;2023-05-11T05:04:17;99109.78;;;14.75;88.86
18819;BME280;9537;45.594;9.294;2023-05-11T05:05:18;99117.50;;;14.76;89.09
18819;BME280;9537;45.594;9.294;2023-05-11T05:06:20;99115.09;;;14.75;89.13
18819;BME280;9537;45.594;9.294;2023-05-11T05:07:21;99116.94;;;14.74;89.73
18819;BME280;9537;45.594;9.294;2023-05-11T05:08:24;99111.81;;;14.73;89.68
18819;BME280;9537;45.594;9.294;2023-05-11T05:09:25;99117.50;;;14.76;89.52
18819;BME280;9537;45.594;9.294;2023-05-11T05:10:28;99115.69;;;14.77;89.34
18819;BME280;9537;45.594;9.294;2023-05-11T05:11:30;99112.19;;;14.76;89.26
18819;BME280;9537;45.594;9.294;2023-05-11T05:12:32;99119.16;;;14.77;89.65
18819;BME280;9537;45.594;9.294;2023-05-11T05:13:33;99109.53;;;14.76;89.64
18819;BME280;9537;45.594;9.294;2023-05-11T05:14:35;99113.22;;;14.75;90.09
18819;BME280;9537;45.594;9.294;2023-05-11T05:15:36;99119.97;;;14.78;89.63
18819;BME280;9537;45.594;9.294;2023-05-11T05:16:39;99113.19;;;14.82;89.59
18819;BME280;9537;45.594;9.294;2023-05-11T05:17:40;99115.22;;;14.86;88.07
18819;BME280;9537;45.594;9.294;2023-05-11T05:18:42;99112.75;;;14.92;86.69
18819;BME280;9537;45.594;9.294;2023-05-11T05:19:43;99118.06;;;14.92;86.85
18819;BME280;9537;45.594;9.294;2023-05-11T05:20:47;99113.75;;;14.91;86.09
18819;BME280;9537;45.594;9.294;2023-05-11T05:21:48;99116.84;;;14.87;85.42
18819;BME280;9537;45.594;9.294;2023-05-11T05:22:50;99117.88;;;14.86;85.80
18819;BME280;9537;45.594;9.294;2023-05-11T05:23:52;99112.56;;;14.86;85.60
18819;BME280;9537;45.594;9.294;2023-05-11T05:24:55;99115.59;;;14.90;85.65
18819;BME280;9537;45.594;9.294;2023-05-11T05:25:56;99124.19;;;14.92;85.99
18819;BME280;9537;45.594;9.294;2023-05-11T05:26:58;99120.72;;;14.92;85.90
18819;BME280;9537;45.594;9.294;2023-05-11T05:27:59;99107.84;;;14.89;85.92
18819;BME280;9537;45.594;9.294;2023-05-11T05:29:01;99118.25;;;14.90;85.48
18819;BME280;9537;45.594;9.294;2023-05-11T05:30:03;99116.63;;;14.89;85.31
18819;BME280;9537;45.594;9.294;2023-05-11T05:31:05;99112.50;;;14.93;85.41
18819;BME280;9537;45.594;9.294;2023-05-11T05:32:06;99110.88;;;14.92;85.14
18819;BME280;9537;45.594;9.294;2023-05-11T05:33:08;99114.34;;;14.93;85.13
18819;BME280;9537;45.594;9.294;2023-05-11T05:34:10;99112.50;;;14.93;85.51
18819;BME280;9537;45.594;9.294;2023-05-11T05:35:12;99108.84;;;14.94;85.16
18819;BME280;9537;45.594;9.294;2023-05-11T05:36:13;99107.81;;;14.95;85.58
18819;BME280;9537;45.594;9.294;2023-05-11T05:37:15;99113.34;;;14.94;86.15
18819;BME280;9537;45.594;9.294;2023-05-11T05:38:16;99111.06;;;14.97;85.32
18819;BME280;9537;45.594;9.294;2023-05-11T05:39:22;99109.22;;;14.98;85.21
18819;BME280;9537;45.594;9.294;2023-05-11T05:40:23;99105.53;;;14.99;85.24
18819;BME280;9537;45.594;9.294;2023-05-11T05:41:25;99104.50;;;15.00;85.02